createdAt,value
2023-03-24T00:03:02.692Z,10.736694
2023-03-24T00:06:27.731Z,10.736694
2023-03-24T00:09:52.941Z,10.696411
2023-03-24T00:13:18.161Z,10.67627
2023-03-24T00:16:43.327Z,10.666199
2023-03-24T00:20:08.513Z,10.726624
2023-03-24T00:23:33.749Z,10.696411
2023-03-24T00:26:58.955Z,10.706482
2023-03-24T00:30:24.200Z,10.666199
2023-03-24T00:33:49.376Z,10.656128
2023-03-24T00:37:15.272Z,10.666199
2023-03-24T00:40:40.467Z,10.656128
2023-03-24T00:44:05.663Z,10.666199
2023-03-24T00:47:30.914Z,10.696411
2023-03-24T00:50:56.052Z,10.67627
2023-03-24T00:54:21.252Z,10.666199
2023-03-24T00:57:46.428Z,10.696411
2023-03-24T01:01:11.642Z,10.706482
2023-03-24T01:04:36.859Z,10.696411
2023-03-24T01:08:02.026Z,10.706482
2023-03-24T01:11:27.256Z,10.736694
2023-03-24T01:14:52.426Z,10.736694
2023-03-24T01:18:17.615Z,10.696411
2023-03-24T01:21:42.823Z,10.696411
2023-03-24T01:25:08.001Z,10.696411
2023-03-24T01:28:33.202Z,10.706482
2023-03-24T01:31:58.493Z,10.67627
2023-03-24T01:35:23.626Z,10.635986
2023-03-24T01:38:48.866Z,10.605774
2023-03-24T01:42:14.030Z,10.595703
2023-03-24T01:45:39.274Z,10.585632
2023-03-24T01:49:04.498Z,10.545349
2023-03-24T01:52:29.750Z,10.505066
2023-03-24T01:55:54.974Z,10.505066
2023-03-24T01:59:20.145Z,10.505066
2023-03-24T02:02:45.360Z,10.505066
2023-03-24T02:06:10.536Z,10.4245
2023-03-24T02:09:35.735Z,10.404358
2023-03-24T02:13:00.960Z,10.30365
2023-03-24T02:16:26.169Z,10.263367
2023-03-24T02:19:51.354Z,10.223083
2023-03-24T02:23:16.550Z,10.172729
2023-03-24T02:26:41.770Z,10.122375
2023-03-24T02:30:07.023Z,10.092163
2023-03-24T02:33:32.218Z,10.011597
2023-03-24T02:36:57.418Z,10.011597
2023-03-24T02:40:22.614Z,9.941101
2023-03-24T02:43:47.845Z,9.93103
2023-03-24T02:47:13.054Z,9.910889
2023-03-24T02:50:38.239Z,9.961243
2023-03-24T02:54:03.481Z,9.961243
2023-03-24T02:57:28.685Z,9.961243
2023-03-24T03:00:53.911Z,9.971313
2023-03-24T03:04:19.161Z,10.011597
2023-03-24T03:07:44.313Z,10.021667
2023-03-24T03:11:09.527Z,10.092163
2023-03-24T03:14:34.745Z,10.072021
2023-03-24T03:18:00.008Z,10.072021
2023-03-24T03:21:25.199Z,10.05188
2023-03-24T03:24:50.423Z,10.072021
2023-03-24T03:28:15.597Z,10.05188
2023-03-24T03:31:40.821Z,10.041809
2023-03-24T03:35:06.002Z,10.05188
2023-03-24T03:38:31.224Z,10.041809
2023-03-24T03:41:56.414Z,9.961243
2023-03-24T03:45:21.624Z,9.910889
2023-03-24T03:48:46.883Z,9.840393
2023-03-24T03:52:12.079Z,9.870605
2023-03-24T03:55:37.359Z,9.870605
2023-03-24T03:59:02.513Z,9.890747
2023-03-24T04:02:27.727Z,9.870605
2023-03-24T04:05:52.946Z,9.890747
2023-03-24T04:09:18.206Z,9.890747
2023-03-24T04:12:43.433Z,9.910889
2023-03-24T04:16:08.646Z,9.900818
2023-03-24T04:19:33.827Z,9.941101
2023-03-24T04:22:59.023Z,9.971313
2023-03-24T04:26:24.235Z,9.991455
2023-03-24T04:29:49.482Z,10.021667
2023-03-24T04:33:14.686Z,10.041809
2023-03-24T04:36:39.895Z,10.041809
2023-03-24T04:40:05.114Z,10.021667
2023-03-24T04:43:30.317Z,10.05188
2023-03-24T04:46:56.038Z,10.082092
2023-03-24T04:50:21.165Z,10.112305
2023-03-24T04:53:46.379Z,10.142517
2023-03-24T04:57:11.651Z,10.152588
2023-03-24T05:00:36.852Z,10.172729
2023-03-24T05:04:02.129Z,10.152588
2023-03-24T05:07:27.314Z,10.253296
2023-03-24T05:10:52.511Z,10.30365
2023-03-24T05:14:17.777Z,10.323792
2023-03-24T05:17:43.049Z,10.333862
2023-03-24T05:21:08.277Z,10.343933
2023-03-24T05:24:33.493Z,10.333862
2023-03-24T05:27:58.693Z,10.343933
2023-03-24T05:31:23.929Z,10.343933
2023-03-24T05:34:49.164Z,10.333862
2023-03-24T05:38:14.387Z,10.30365
2023-03-24T05:41:39.606Z,10.364075
2023-03-24T05:45:04.842Z,10.384216
2023-03-24T05:48:30.022Z,10.404358
2023-03-24T05:51:55.251Z,10.414429
2023-03-24T05:55:20.550Z,10.474854
2023-03-24T05:58:45.756Z,10.525208
2023-03-24T06:02:13.224Z,10.605774
2023-03-24T06:05:38.488Z,10.625916
2023-03-24T06:09:03.681Z,10.67627
2023-03-24T06:12:29.077Z,10.706482
2023-03-24T06:15:54.236Z,10.736694
2023-03-24T06:19:19.439Z,10.80719
2023-03-24T06:22:44.590Z,10.857544
2023-03-24T06:26:09.735Z,10.907898
2023-03-24T06:29:35.028Z,10.958252
2023-03-24T06:33:00.074Z,10.917969
2023-03-24T06:36:25.206Z,10.968323
2023-03-24T06:39:50.375Z,10.998535
2023-03-24T06:43:15.576Z,11.038818
2023-03-24T06:46:40.789Z,11.069031
2023-03-24T06:50:05.884Z,11.139526
2023-03-24T06:53:31.069Z,11.17981
2023-03-24T06:56:56.292Z,11.210022
2023-03-24T07:00:21.462Z,11.169739
2023-03-24T07:03:46.702Z,11.18988
2023-03-24T07:07:28.253Z,11.169739
2023-03-24T07:10:37.026Z,11.109314
2023-03-24T07:14:02.204Z,11.139526
2023-03-24T07:17:27.359Z,11.109314
2023-03-24T07:20:52.554Z,11.018677
2023-03-24T07:24:17.682Z,10.998535
2023-03-24T07:27:43.113Z,10.877686
2023-03-24T07:31:08.003Z,10.837402
2023-03-24T07:34:33.116Z,10.756836
2023-03-24T07:37:58.295Z,10.706482
2023-03-24T07:41:23.424Z,10.696411
2023-03-24T07:44:48.603Z,10.736694
2023-03-24T07:48:13.741Z,10.706482
2023-03-24T07:51:40.636Z,10.756836
2023-03-24T07:55:04.112Z,10.80719
2023-03-24T07:58:29.173Z,10.877686
2023-03-24T08:01:56.900Z,10.877686
2023-03-24T08:05:19.546Z,10.837402
2023-03-24T08:08:44.677Z,10.877686
2023-03-24T08:12:17.738Z,10.907898
2023-03-24T08:15:34.981Z,10.917969
2023-03-24T08:19:00.149Z,11.028748
2023-03-24T08:22:25.328Z,10.998535
2023-03-24T08:25:50.561Z,11.099243
2023-03-24T08:29:15.663Z,11.139526
2023-03-24T08:32:40.813Z,11.169739
2023-03-24T08:36:05.952Z,11.250305
2023-03-24T08:39:31.130Z,11.270447
2023-03-24T08:42:56.342Z,11.330872
2023-03-24T08:46:21.510Z,11.351013
2023-03-24T08:49:46.667Z,11.280518
2023-03-24T08:53:11.830Z,11.391296
2023-03-24T08:56:37.061Z,11.542358
2023-03-24T09:00:02.199Z,11.673279
2023-03-24T09:03:27.447Z,11.753845
2023-03-24T09:06:52.575Z,11.904907
2023-03-24T09:10:17.787Z,11.94519
2023-03-24T09:13:43.001Z,11.864624
2023-03-24T09:17:08.213Z,11.763916
2023-03-24T09:20:33.446Z,11.753845
2023-03-24T09:23:58.575Z,11.733704
2023-03-24T09:27:23.714Z,11.763916
2023-03-24T09:30:49.151Z,11.763916
2023-03-24T09:34:14.070Z,11.804199
2023-03-24T09:37:39.278Z,11.854553
2023-03-24T09:41:04.457Z,11.854553
2023-03-24T09:44:29.659Z,11.804199
2023-03-24T09:47:54.886Z,11.763916
2023-03-24T09:51:20.041Z,11.763916
2023-03-24T09:54:45.236Z,11.864624
2023-03-24T09:58:10.322Z,12.045898
2023-03-24T10:01:35.471Z,12.126465
2023-03-24T10:05:00.632Z,12.19696
2023-03-24T10:08:25.812Z,12.307739
2023-03-24T10:11:51.008Z,12.378235
2023-03-24T10:15:21.766Z,12.468872
2023-03-24T10:18:41.325Z,12.559509
2023-03-24T10:22:06.487Z,12.529297
2023-03-24T10:25:31.684Z,12.418518
2023-03-24T10:28:56.900Z,12.348022
2023-03-24T10:32:22.076Z,12.348022
2023-03-24T10:35:47.470Z,12.368164
2023-03-24T10:39:18.956Z,12.378235
2023-03-24T10:42:37.721Z,12.277527
2023-03-24T10:46:03.101Z,12.096252
2023-03-24T10:49:28.232Z,11.884766
2023-03-24T10:52:53.466Z,11.794128
2023-03-24T10:56:18.710Z,11.784058
2023-03-24T10:59:43.948Z,11.794128
2023-03-24T11:03:09.278Z,11.784058
2023-03-24T11:06:34.376Z,11.753845
2023-03-24T11:09:59.587Z,11.69342
2023-03-24T11:13:24.897Z,11.703491
2023-03-24T11:16:50.167Z,11.723633
2023-03-24T11:20:15.376Z,11.69342
2023-03-24T11:23:40.674Z,11.733704
2023-03-24T11:27:05.875Z,11.703491
2023-03-24T11:30:31.119Z,11.723633
2023-03-24T11:33:56.371Z,11.733704
2023-03-24T11:37:21.642Z,11.794128
2023-03-24T11:40:46.854Z,11.904907
2023-03-24T11:44:12.116Z,12.045898
2023-03-24T11:47:37.334Z,12.136536
2023-03-24T11:51:02.568Z,12.166748
2023-03-24T11:54:29.563Z,12.156677
2023-03-24T11:57:53.044Z,12.116394
2023-03-24T12:01:18.269Z,12.086182
2023-03-24T12:04:43.539Z,12.18689
2023-03-24T12:08:08.793Z,12.19696
2023-03-24T12:11:34.017Z,12.096252
2023-03-24T12:14:59.238Z,11.985474
2023-03-24T12:18:24.431Z,11.975403
2023-03-24T12:21:49.699Z,11.904907
2023-03-24T12:25:14.913Z,11.93512
2023-03-24T12:28:40.199Z,11.93512
2023-03-24T12:32:05.424Z,11.955261
2023-03-24T12:35:30.698Z,11.93512
2023-03-24T12:38:55.849Z,11.955261
2023-03-24T12:42:21.074Z,11.955261
2023-03-24T12:45:46.425Z,11.914978
2023-03-24T12:49:11.622Z,11.471863
2023-03-24T12:52:36.861Z,10.756836
2023-03-24T12:56:02.210Z,10.343933
2023-03-24T12:59:27.440Z,10.253296
2023-03-24T13:02:52.982Z,10.263367
2023-03-24T13:06:18.120Z,10.202942
2023-03-24T13:09:43.393Z,10.092163
2023-03-24T13:13:08.642Z,10.092163
2023-03-24T13:16:35.238Z,10.1828
2023-03-24T13:20:00.501Z,10.333862
2023-03-24T13:23:25.787Z,10.293579
2023-03-24T13:26:51.066Z,10.404358
2023-03-24T13:30:16.348Z,10.404358
2023-03-24T13:33:41.561Z,10.273438
2023-03-24T13:37:06.768Z,10.1828
2023-03-24T13:40:31.979Z,10.172729
2023-03-24T13:43:57.294Z,10.172729
2023-03-24T13:47:22.542Z,10.152588
2023-03-24T13:50:47.833Z,10.293579
2023-03-24T13:54:13.163Z,10.323792
2023-03-24T13:57:38.337Z,10.343933
2023-03-24T14:01:03.620Z,10.384216
2023-03-24T14:04:28.959Z,10.333862
2023-03-24T14:07:54.198Z,10.253296
2023-03-24T14:11:19.443Z,10.273438
2023-03-24T14:14:44.654Z,10.323792
2023-03-24T14:18:09.917Z,10.414429
2023-03-24T14:21:35.136Z,10.4245
2023-03-24T14:25:00.390Z,10.454712
2023-03-24T14:28:25.663Z,10.505066
2023-03-24T14:31:50.857Z,10.545349
2023-03-24T14:35:16.147Z,10.4245
2023-03-24T14:38:41.388Z,10.474854
2023-03-24T14:42:06.631Z,10.625916
2023-03-24T14:45:33.249Z,10.605774
2023-03-24T14:48:57.114Z,10.625916
2023-03-24T14:52:22.326Z,10.605774
2023-03-24T14:55:47.688Z,10.635986
2023-03-24T14:59:12.854Z,10.545349
2023-03-24T15:02:38.153Z,10.505066
2023-03-24T15:06:03.281Z,10.4245
2023-03-24T15:40:59.791Z,10.384216
2023-03-24T15:44:24.970Z,10.323792
2023-03-24T15:47:50.223Z,10.273438
2023-03-24T15:51:15.464Z,10.233154
2023-03-24T15:54:40.699Z,10.202942
2023-03-24T15:58:05.936Z,10.142517
2023-03-24T16:01:31.289Z,10.072021
2023-03-24T16:05:04.296Z,10.05188
2023-03-24T16:08:21.569Z,10.082092
2023-03-24T16:11:46.884Z,10.112305
2023-03-24T16:15:12.122Z,10.152588
2023-03-24T16:18:37.329Z,10.1828
2023-03-24T16:22:02.570Z,10.1828
2023-03-24T16:25:27.797Z,10.072021
2023-03-24T16:28:53.046Z,10.041809
2023-03-24T16:32:18.346Z,10.041809
2023-03-24T16:35:43.544Z,10.021667
2023-03-24T16:39:08.778Z,9.941101
2023-03-24T16:42:33.961Z,9.941101
2023-03-24T16:45:59.216Z,9.910889
2023-03-24T16:49:24.557Z,9.910889
2023-03-24T16:52:49.647Z,9.840393
2023-03-24T16:56:15.038Z,9.810181
2023-03-24T16:59:40.261Z,9.830322
2023-03-24T17:03:05.528Z,9.870605
2023-03-24T17:06:30.908Z,9.890747
2023-03-24T17:09:56.031Z,9.689331
2023-03-24T17:13:21.311Z,9.67926
2023-03-24T17:16:46.493Z,9.638977
2023-03-24T17:20:11.675Z,9.739685
2023-03-24T17:23:36.900Z,9.759827
2023-03-24T17:27:02.177Z,9.840393
2023-03-24T17:30:27.316Z,9.870605
2023-03-24T17:33:52.516Z,9.900818
2023-03-24T17:37:17.703Z,9.910889
2023-03-24T17:40:42.939Z,9.870605
2023-03-24T17:44:08.119Z,9.830322
2023-03-24T17:47:33.314Z,9.739685
2023-03-24T17:50:58.480Z,9.739685
2023-03-24T17:54:23.651Z,9.749756
2023-03-24T17:57:48.878Z,9.709473
2023-03-24T18:01:14.199Z,9.67926
2023-03-24T18:04:39.321Z,9.608765
2023-03-24T18:08:04.530Z,9.608765
2023-03-24T18:11:29.721Z,9.528198
2023-03-24T18:14:54.985Z,9.42749
2023-03-24T18:18:20.307Z,9.276428
2023-03-24T18:21:45.486Z,9.256287
2023-03-24T18:25:10.643Z,9.306641
2023-03-24T18:28:35.878Z,9.276428
2023-03-24T18:32:01.216Z,9.205933
2023-03-24T18:35:26.345Z,8.984375
2023-03-24T18:38:51.553Z,8.92395
2023-03-24T18:42:17.468Z,8.843384
2023-03-24T18:45:42.806Z,8.843384
2023-03-24T18:49:08.184Z,8.813171
2023-03-24T18:52:33.376Z,8.863525
2023-03-24T18:55:58.598Z,8.843384
2023-03-24T18:59:23.805Z,8.944092
2023-03-24T19:02:49.122Z,8.954163
2023-03-24T19:06:14.257Z,8.954163
2023-03-24T19:09:39.465Z,8.984375
2023-03-24T19:13:04.709Z,9.0448
2023-03-24T19:16:29.949Z,9.095154
2023-03-24T19:19:55.115Z,9.105225
2023-03-24T19:23:20.342Z,9.165649
2023-03-24T19:26:45.600Z,9.256287
2023-03-24T19:30:10.850Z,9.256287
2023-03-24T19:33:36.084Z,9.276428
2023-03-24T19:37:01.385Z,9.165649
2023-03-24T19:40:26.676Z,9.165649
2023-03-24T19:43:51.869Z,9.17572
2023-03-24T19:47:17.161Z,9.17572
2023-03-24T19:50:42.378Z,9.135437
2023-03-24T19:54:07.582Z,9.125366
2023-03-24T19:57:32.813Z,9.135437
2023-03-24T20:00:58.011Z,9.205933
2023-03-24T20:04:23.236Z,9.17572
2023-03-24T20:07:48.497Z,9.205933
2023-03-24T20:11:13.689Z,9.205933
2023-03-24T20:14:38.971Z,9.226074
2023-03-24T20:18:04.229Z,9.195862
2023-03-24T20:21:29.424Z,9.145508
2023-03-24T20:24:54.677Z,9.195862
2023-03-24T20:28:19.884Z,9.17572
2023-03-24T20:31:45.143Z,9.195862
2023-03-24T20:35:10.365Z,9.236145
2023-03-24T20:38:35.603Z,9.236145
2023-03-24T20:42:00.833Z,9.205933
2023-03-24T20:45:26.044Z,9.165649
2023-03-24T20:48:51.305Z,9.075012
2023-03-24T20:52:16.488Z,9.0448
2023-03-24T20:55:41.722Z,9.075012
2023-03-24T20:59:06.940Z,8.994446
2023-03-24T21:02:32.264Z,8.964233
2023-03-24T21:05:57.455Z,8.893738
2023-03-24T21:09:22.658Z,8.893738
2023-03-24T21:12:52.639Z,8.843384
2023-03-24T21:16:13.133Z,8.873596
2023-03-24T21:19:38.417Z,8.843384
2023-03-24T21:23:03.687Z,8.79303
2023-03-24T21:26:28.931Z,8.732605
2023-03-24T21:29:54.196Z,8.712463
2023-03-24T21:33:19.411Z,8.732605
2023-03-24T21:36:44.630Z,8.662109
2023-03-24T21:40:09.854Z,8.682251
2023-03-24T21:43:35.073Z,8.682251
2023-03-24T21:47:00.254Z,8.631897
2023-03-24T21:50:25.465Z,8.662109
2023-03-24T21:53:50.654Z,8.652039
2023-03-24T21:57:15.897Z,8.621826
2023-03-24T22:00:41.156Z,8.611755
2023-03-24T22:04:06.402Z,8.581543
2023-03-24T22:07:31.647Z,8.581543
2023-03-24T22:10:56.896Z,8.561401
2023-03-24T22:14:22.137Z,8.521118
2023-03-24T22:17:47.434Z,8.500977
2023-03-24T22:21:12.663Z,8.450623
2023-03-24T22:24:37.879Z,8.480835
2023-03-24T22:28:03.129Z,8.480835
2023-03-24T22:31:28.534Z,8.480835
2023-03-24T22:34:53.610Z,8.480835
2023-03-24T22:38:18.812Z,8.470764
2023-03-24T22:41:44.035Z,8.440552
2023-03-24T22:45:09.319Z,8.450623
2023-03-24T22:48:34.656Z,8.470764
2023-03-24T22:51:59.770Z,8.591614
2023-03-24T22:55:24.973Z,8.631897
2023-03-24T22:58:50.237Z,8.682251
2023-03-24T23:02:15.510Z,8.702393
2023-03-24T23:05:40.716Z,8.762817
2023-03-24T23:09:05.900Z,8.813171
2023-03-24T23:12:31.131Z,8.79303
2023-03-24T23:15:56.376Z,8.813171
2023-03-24T23:19:21.883Z,8.803101
2023-03-24T23:22:47.074Z,8.833313
2023-03-24T23:26:12.272Z,8.813171
2023-03-24T23:29:37.507Z,8.762817
2023-03-24T23:33:02.830Z,8.762817
2023-03-24T23:36:28.014Z,8.742676
2023-03-24T23:39:53.295Z,8.79303
2023-03-24T23:43:18.536Z,8.732605
2023-03-24T23:46:43.737Z,8.772888
2023-03-24T23:50:08.967Z,8.833313
2023-03-24T23:53:34.167Z,8.803101
2023-03-24T23:56:59.466Z,8.843384
